Terminal Aerodrome Forecast
Issued by NWS Shreveport, LA

Home | Current Version | Previous Version | Text Only | Print | Product List | Glossary On
Versions: 1 2 3 4 5 6 7 8 9 10 11 12 13 14 15 16 17 18 19 20 21 22 23 24
000
FTUS44 KSHV 231403 AAB
TAFGGG
TAF AMD
KGGG 231403Z 2314/2412 18008KT P6SM FEW016
     FM231500 17012G18KT P6SM SCT020
     FM231800 18015G25KT P6SM FEW030
     FM240100 16010KT P6SM SKC
     FM240900 17012KT P6SM SCT015 BKN025=

USA.gov is the U.S. government's official web portal to all federal, state and local government web resources and services.